Kaleva, Michigan
Current Conditions -  °F | °C
As of 9:15 PM on Monday 22 Dec 2014 (Local Time) from KMBL Reporting Station
Overcast Overcast  
Wind Chill: 24°   Ceiling: 4000
Heat Index: 34°   Visibility: 5mi
Dew Point: 28°   Wind: 15mph
Humidity: 81%   Direction: 110°ESE
Pressure: 29.82"   Gusts: 21mph
Location:  44.37°N, 86.01°W
Report Text: KMBL 230215Z AUTO 11013G18KT 5SM FEW013 SCT031 OVC040 01/M02 A2982 RMK AO1
Loading
Personal Weather Stations






























Interactive Weather Map New forecast layout! Learn more

10-Day Weather Forecast

Advertisements
Track Severe Weather on mobile